Time;durP1;ratioP1;P1;durP2;ratioP2;P2;SDS_P1;SDS_P2;PMS_P1;PMS_P2;Temp;Humidity;BMP_temperature;BMP_pressure;BME280_temperature;BME280_humidity;BME280_pressure;Samples;Min_cycle;Max_cycle;Signal;HPM_P1;HPM_P2
2021/10/09 00:01:44;;;;;;;5.32;4.97;;;14.90;67.40;;;;;;5028283;28;20060;-87
2021/10/09 00:04:10;;;;;;;4.78;4.57;;;15.00;67.50;;;;;;5023146;28;20044;-89
2021/10/09 00:06:36;;;;;;;5.65;5.35;;;14.90;67.60;;;;;;5032780;28;20495;-89
2021/10/09 00:09:03;;;;;;;5.38;5.07;;;14.90;67.60;;;;;;5034589;28;20052;-88
2021/10/09 00:11:37;;;;;;;4.82;4.63;;;14.90;67.60;;;;;;5017052;28;20029;-89
2021/10/09 00:14:07;;;;;;;5.25;4.85;;;14.90;67.70;;;;;;5031402;28;20479;-89
2021/10/09 00:16:33;;;;;;;4.83;4.43;;;14.80;67.70;;;;;;5016708;28;20513;-89
2021/10/09 00:18:59;;;;;;;4.60;4.40;;;14.80;67.80;;;;;;5033355;28;20029;-89
2021/10/09 00:21:25;;;;;;;4.80;4.50;;;14.80;67.90;;;;;;5026830;28;20420;-89
2021/10/09 00:23:51;;;;;;;5.18;4.88;;;14.70;67.80;;;;;;5031098;28;20041;-89
2021/10/09 00:26:17;;;;;;;5.05;4.75;;;14.70;67.90;;;;;;5027858;28;20399;-88
2021/10/09 00:28:44;;;;;;;5.15;4.75;;;14.70;67.90;;;;;;5016516;28;20036;-89
2021/10/09 00:31:10;;;;;;;4.95;4.65;;;14.70;67.90;;;;;;5028151;28;20403;-89
2021/10/09 00:33:36;;;;;;;4.60;4.40;;;14.70;68.80;;;;;;5013595;28;20593;-89
2021/10/09 00:36:02;;;;;;;5.25;4.85;;;14.70;68.00;;;;;;5033360;28;20044;-89
2021/10/09 00:38:28;;;;;;;4.60;4.40;;;14.70;68.10;;;;;;5031211;28;20033;-89
2021/10/09 00:40:54;;;;;;;4.50;4.30;;;14.60;68.10;;;;;;5032978;28;20041;-89
2021/10/09 00:43:20;;;;;;;4.70;4.50;;;14.60;68.10;;;;;;5016606;28;20037;-89
2021/10/09 00:45:55;;;;;;;4.72;4.50;;;14.60;68.20;;;;;;5033565;28;20049;-88
2021/10/09 00:48:21;;;;;;;5.13;4.82;;;14.60;68.30;;;;;;5019341;28;20034;-88
2021/10/09 00:50:47;;;;;;;5.10;4.80;;;14.50;68.20;;;;;;5014649;28;20495;-89
2021/10/09 00:53:13;;;;;;;4.65;4.45;;;14.50;68.30;;;;;;5015860;28;20046;-89
2021/10/09 00:55:40;;;;;;;5.85;5.45;;;14.50;68.40;;;;;;5029100;28;20041;-89
2021/10/09 00:58:06;;;;;;;5.15;4.85;;;14.50;69.20;;;;;;5015962;28;20048;-89
2021/10/09 01:00:33;;;;;;;4.63;4.43;;;14.40;68.50;;;;;;5024159;28;20054;-89
2021/10/09 01:02:59;;;;;;;5.00;4.70;;;14.40;68.50;;;;;;4996547;28;20485;-89
2021/10/09 01:05:25;;;;;;;5.47;5.03;;;14.40;68.60;;;;;;5032356;28;20036;-89
2021/10/09 01:07:51;;;;;;;11.82;5.80;;;14.30;68.60;;;;;;5016326;28;20419;-89
2021/10/09 01:10:18;;;;;;;4.60;4.40;;;14.30;68.60;;;;;;5032561;28;20025;-89
2021/10/09 01:12:44;;;;;;;5.07;4.78;;;14.30;68.70;;;;;;5023138;28;20030;-89
2021/10/09 01:15:21;;;;;;;5.63;5.25;;;14.30;68.80;;;;;;5024155;28;20389;-89
2021/10/09 01:17:47;;;;;;;5.25;4.88;;;14.20;68.80;;;;;;5030157;28;20029;-88
2021/10/09 01:20:14;;;;;;;5.97;5.53;;;14.20;68.80;;;;;;5015646;28;20037;-89
2021/10/09 01:22:40;;;;;;;5.03;4.57;;;14.10;68.80;;;;;;5015081;28;20045;-89
2021/10/09 01:25:07;;;;;;;4.53;4.32;;;14.10;69.00;;;;;;5024683;28;20036;-89
2021/10/09 01:27:34;;;;;;;4.65;4.45;;;14.10;69.00;;;;;;5021480;28;20120;-89
2021/10/09 01:30:00;;;;;;;4.38;4.18;;;14.10;69.10;;;;;;5033102;28;20033;-89
2021/10/09 01:32:26;;;;;;;4.32;4.13;;;14.00;69.00;;;;;;5031672;28;20104;-89
2021/10/09 01:34:52;;;;;;;5.80;4.40;;;14.00;69.10;;;;;;5033028;28;20041;-89
2021/10/09 01:37:18;;;;;;;4.45;4.25;;;14.10;69.20;;;;;;5032988;28;20037;-89
2021/10/09 01:39:45;;;;;;;4.45;4.25;;;14.10;69.20;;;;;;5031793;28;20471;-87
2021/10/09 01:42:11;;;;;;;3.88;3.67;;;14.00;69.10;;;;;;5031804;28;20491;-88
2021/10/09 01:44:38;;;;;;;4.75;4.50;;;14.10;69.20;;;;;;5015251;28;20392;-89
2021/10/09 01:47:04;;;;;;;4.50;4.28;;;14.00;69.10;;;;;;5031224;28;20033;-88
2021/10/09 01:49:30;;;;;;;4.68;4.47;;;14.10;69.20;;;;;;5013602;28;20396;-89
2021/10/09 01:51:56;;;;;;;4.63;4.22;;;14.00;69.10;;;;;;5031639;28;20041;-89
2021/10/09 01:54:23;;;;;;;4.40;4.20;;;14.10;69.20;;;;;;5003140;28;20030;-88
2021/10/09 01:56:49;;;;;;;4.78;4.50;;;14.10;69.30;;;;;;5029199;28;20041;-89
2021/10/09 01:59:15;;;;;;;4.40;4.20;;;14.00;69.30;;;;;;5031078;28;20013;-89
2021/10/09 02:01:42;;;;;;;4.57;4.28;;;14.10;69.40;;;;;;5030263;28;20323;-89
2021/10/09 02:04:08;;;;;;;4.40;4.20;;;14.10;69.30;;;;;;5022812;28;20383;-88
2021/10/09 02:06:34;;;;;;;4.72;4.53;;;14.00;70.10;;;;;;5021321;28;20040;-88
2021/10/09 02:09:00;;;;;;;4.45;4.25;;;14.00;69.30;;;;;;5028194;28;20467;-89
2021/10/09 02:11:36;;;;;;;5.03;4.72;;;14.00;69.40;;;;;;5045480;28;20033;-89
2021/10/09 02:24:55;;;;;;;4.65;4.45;;;13.90;69.60;;;;;;5056961;28;20040;-89
2021/10/09 02:27:21;;;;;;;4.20;4.00;;;13.80;69.50;;;;;;5018006;28;20037;-88
2021/10/09 02:29:47;;;;;;;4.32;4.13;;;13.80;69.60;;;;;;4989631;28;20058;-89
2021/10/09 02:32:13;;;;;;;5.03;4.72;;;13.80;69.60;;;;;;5022015;28;20049;-89
2021/10/09 02:34:39;;;;;;;4.40;4.20;;;13.80;69.70;;;;;;5010953;28;20045;-88
2021/10/09 02:37:05;;;;;;;5.05;4.57;;;13.80;69.60;;;;;;5033672;28;20033;-87
2021/10/09 02:39:31;;;;;;;4.70;4.40;;;13.80;69.70;;;;;;5013508;28;20037;-89
2021/10/09 02:41:57;;;;;;;4.65;4.35;;;13.70;69.70;;;;;;5029994;28;20048;-88
2021/10/09 02:44:23;;;;;;;5.10;4.80;;;13.70;69.90;;;;;;5026144;28;20030;-88
2021/10/09 02:46:50;;;;;;;4.85;4.55;;;13.60;69.90;;;;;;5030513;28;20041;-89
2021/10/09 02:49:16;;;;;;;4.93;4.63;;;13.70;70.00;;;;;;5031409;28;20487;-89
2021/10/09 02:51:42;;;;;;;5.03;4.72;;;13.60;69.90;;;;;;5005510;28;20048;-88
2021/10/09 02:54:08;;;;;;;4.53;4.10;;;13.60;69.90;;;;;;5024830;28;20570;-88
2021/10/09 02:56:34;;;;;;;4.63;4.22;;;13.60;70.00;;;;;;5031450;28;20041;-88
2021/10/09 02:59:00;;;;;;;4.60;4.30;;;13.60;70.00;;;;;;5031035;28;20033;-88
2021/10/09 03:01:26;;;;;;;4.82;4.47;;;13.60;70.00;;;;;;5030863;28;20049;-88
2021/10/09 03:03:52;;;;;;;4.68;4.45;;;13.60;70.00;;;;;;5029953;28;20424;-87
2021/10/09 03:06:18;;;;;;;4.28;4.07;;;13.60;70.00;;;;;;5031843;28;20078;-88
2021/10/09 03:08:44;;;;;;;4.30;4.10;;;13.60;70.00;;;;;;5030251;28;20468;-88
2021/10/09 03:11:10;;;;;;;4.60;4.40;;;13.60;70.00;;;;;;5028192;28;20038;-88
2021/10/09 03:13:36;;;;;;;4.53;4.32;;;13.60;70.00;;;;;;5019085;28;20426;-88
2021/10/09 03:16:03;;;;;;;4.25;4.05;;;13.50;70.00;;;;;;5029028;28;20112;-89
2021/10/09 03:18:29;;;;;;;4.25;4.00;;;13.50;70.00;;;;;;5030671;28;20029;-87
2021/10/09 03:20:55;;;;;;;4.40;4.20;;;13.50;70.10;;;;;;5026654;28;20052;-88
2021/10/09 03:23:21;;;;;;;4.10;3.90;;;13.50;70.10;;;;;;5006552;28;20415;-89
2021/10/09 03:25:47;;;;;;;4.50;4.20;;;13.50;70.20;;;;;;4987515;28;20046;-89
2021/10/09 03:28:13;;;;;;;9.18;4.28;;;13.40;70.20;;;;;;5024140;28;20029;-86
2021/10/09 03:30:39;;;;;;;4.07;3.88;;;13.40;70.20;;;;;;5029759;28;20042;-86
2021/10/09 03:33:05;;;;;;;4.65;4.35;;;13.40;70.20;;;;;;5027160;28;20037;-86
2021/10/09 03:35:31;;;;;;;4.50;4.20;;;13.30;70.30;;;;;;5009677;28;20044;-86
2021/10/09 03:37:58;;;;;;;4.50;4.07;;;13.30;70.40;;;;;;5030677;28;20388;-85
2021/10/09 03:40:25;;;;;;;4.20;4.00;;;13.30;70.40;;;;;;5029744;28;20060;-86
2021/10/09 03:42:56;;;;;;;4.75;4.45;;;13.20;70.40;;;;;;5030175;28;20031;-86
2021/10/09 03:45:32;;;;;;;4.70;4.50;;;13.30;70.40;;;;;;5013522;28;20042;-86
2021/10/09 03:53:35;;;;;;;4.55;4.35;;;13.20;70.40;;;;;;5002611;28;20051;-87
2021/10/09 03:56:01;;;;;;;5.10;4.63;;;13.20;70.50;;;;;;5004977;28;20046;-86
2021/10/09 03:58:27;;;;;;;4.72;4.43;;;13.10;70.50;;;;;;4996178;28;20073;-86
2021/10/09 04:00:54;;;;;;;4.40;4.20;;;13.10;70.50;;;;;;4992147;28;20057;-86
2021/10/09 04:03:20;;;;;;;4.32;4.13;;;13.10;70.60;;;;;;5009418;28;20053;-87
2021/10/09 04:05:46;;;;;;;4.35;4.00;;;13.00;70.60;;;;;;5004991;28;20445;-86
2021/10/09 04:08:12;;;;;;;4.50;4.30;;;13.00;70.60;;;;;;5005113;28;20034;-86
2021/10/09 04:10:38;;;;;;;4.88;4.57;;;13.00;70.70;;;;;;4981653;28;20412;-87
2021/10/09 04:13:05;;;;;;;4.10;3.90;;;13.00;70.70;;;;;;4992917;28;20037;-87
2021/10/09 04:15:31;;;;;;;4.50;4.30;;;13.00;70.70;;;;;;5008822;28;20404;-86
2021/10/09 04:17:57;;;;;;;4.53;4.32;;;12.90;70.70;;;;;;4997758;28;20043;-86
2021/10/09 04:20:23;;;;;;;4.50;4.30;;;12.90;70.70;;;;;;4999389;28;20083;-86
2021/10/09 04:22:50;;;;;;;4.80;4.60;;;12.90;70.70;;;;;;5006472;28;20061;-86
2021/10/09 04:25:16;;;;;;;4.45;4.25;;;12.90;70.70;;;;;;4989842;28;20591;-86
2021/10/09 04:27:42;;;;;;;4.25;4.05;;;12.80;70.70;;;;;;4990736;28;20046;-88
2021/10/09 04:30:09;;;;;;;4.30;4.10;;;12.80;70.80;;;;;;5011352;28;20048;-89
2021/10/09 04:32:35;;;;;;;5.05;4.75;;;12.80;70.90;;;;;;5007445;28;20042;-84
2021/10/09 04:35:01;;;;;;;4.53;4.32;;;12.80;70.90;;;;;;5017451;28;20093;-87
2021/10/09 04:37:27;;;;;;;4.15;3.95;;;12.80;70.90;;;;;;4999514;28;20041;-88
2021/10/09 04:39:53;;;;;;;4.00;3.80;;;12.80;70.90;;;;;;5033408;28;20490;-84
2021/10/09 04:42:19;;;;;;;5.10;4.65;;;12.80;70.90;;;;;;5012891;28;20056;-85
2021/10/09 04:44:45;;;;;;;4.95;4.30;;;12.70;70.80;;;;;;5032586;28;20046;-83
2021/10/09 04:47:11;;;;;;;4.10;3.90;;;12.70;70.90;;;;;;5023903;28;20041;-86
2021/10/09 04:49:37;;;;;;;4.15;3.95;;;12.70;71.00;;;;;;5016547;28;20033;-84
2021/10/09 04:52:04;;;;;;;4.53;4.32;;;12.70;71.00;;;;;;5026370;28;20041;-83
2021/10/09 04:54:30;;;;;;;4.50;4.20;;;12.70;71.00;;;;;;5031767;28;20041;-83
2021/10/09 04:56:56;;;;;;;3.97;3.78;;;12.70;71.00;;;;;;5016404;28;20025;-84
2021/10/09 04:59:22;;;;;;;4.07;3.88;;;12.70;71.00;;;;;;5027766;28;20032;-83
2021/10/09 05:01:48;;;;;;;4.55;4.35;;;12.60;70.90;;;;;;5032439;28;20060;-86
2021/10/09 05:04:14;;;;;;;4.43;4.15;;;12.60;71.00;;;;;;5025553;28;20038;-85
2021/10/09 05:06:40;;;;;;;4.10;3.90;;;12.60;71.00;;;;;;5015546;28;20048;-85
2021/10/09 05:09:07;;;;;;;3.90;3.70;;;12.60;71.00;;;;;;5024441;28;20029;-82
2021/10/09 05:11:33;;;;;;;6.90;4.75;;;12.60;70.90;;;;;;5024118;28;20029;-85
2021/10/09 05:13:59;;;;;;;4.93;4.63;;;12.60;70.90;;;;;;5007061;28;20492;-88
2021/10/09 05:16:26;;;;;;;6.00;4.95;;;12.60;70.90;;;;;;5023582;28;20037;-84
2021/10/09 05:18:52;;;;;;;4.45;4.25;;;12.60;71.00;;;;;;5032625;28;20040;-87
2021/10/09 05:21:18;;;;;;;5.43;4.10;;;12.60;71.00;;;;;;5031960;28;20081;-87
2021/10/09 05:23:44;;;;;;;4.45;4.20;;;12.60;71.10;;;;;;5032650;28;20030;-87
2021/10/09 05:26:10;;;;;;;5.13;4.80;;;12.60;71.10;;;;;;5033064;28;20052;-86
2021/10/09 05:28:45;;;;;;;4.78;4.38;;;12.50;71.00;;;;;;5032274;28;20033;-87
2021/10/09 05:31:20;;;;;;;4.07;3.88;;;12.50;71.10;;;;;;5018467;28;20045;-86
2021/10/09 05:33:46;;;;;;;4.43;4.18;;;12.50;71.10;;;;;;5016692;28;20384;-86
2021/10/09 05:36:12;;;;;;;5.32;4.93;;;12.50;71.10;;;;;;5029810;28;20533;-87
2021/10/09 05:38:38;;;;;;;4.15;3.95;;;12.50;71.20;;;;;;5015535;28;20044;-86
2021/10/09 05:41:05;;;;;;;4.57;4.32;;;12.50;71.20;;;;;;5026419;28;20403;-86
2021/10/09 05:43:31;;;;;;;4.95;4.65;;;12.40;71.20;;;;;;5016065;28;20476;-86
2021/10/09 05:45:58;;;;;;;3.95;3.75;;;12.40;71.20;;;;;;5031718;28;20415;-87
2021/10/09 05:48:24;;;;;;;4.63;4.18;;;12.40;71.30;;;;;;5018523;28;20042;-86
2021/10/09 05:56:16;;;;;;;4.75;4.35;;;12.30;71.40;;;;;;5035103;28;20040;-87
2021/10/09 06:47:24;;;;;;;3.70;3.50;;;12.30;71.40;;;;;;5026009;28;20041;-89
2021/10/09 07:00:38;;;;;;;4.60;4.40;;;12.50;71.20;;;;;;5030980;28;20048;-84
2021/10/09 07:03:04;;;;;;;4.55;4.30;;;12.50;71.20;;;;;;5034170;28;20037;-85
2021/10/09 07:05:33;;;;;;;4.43;4.15;;;12.50;71.20;;;;;;5035587;28;20048;-85
2021/10/09 07:08:06;;;;;;;4.72;4.45;;;12.50;71.20;;;;;;5062952;28;20045;-85
2021/10/09 07:10:32;;;;;;;10.98;5.47;;;12.60;71.30;;;;;;5031210;28;20048;-86
2021/10/09 07:12:58;;;;;;;4.68;4.38;;;12.60;71.50;;;;;;5042153;28;20041;-85
2021/10/09 07:15:24;;;;;;;6.10;5.55;;;12.60;71.50;;;;;;5030625;28;20089;-85
2021/10/09 07:17:50;;;;;;;4.65;4.43;;;12.60;71.50;;;;;;5046304;28;20042;-86
2021/10/09 07:20:19;;;;;;;5.07;4.63;;;12.60;71.40;;;;;;5031279;28;20025;-85
2021/10/09 07:22:47;;;;;;;6.03;5.53;;;12.80;71.40;;;;;;5062538;28;20041;-87
2021/10/09 07:25:14;;;;;;;4.93;4.53;;;13.10;70.90;;;;;;5045925;28;20041;-87
2021/10/09 07:27:40;;;;;;;4.93;4.63;;;13.60;69.90;;;;;;5046936;28;20037;-87
2021/10/09 07:30:07;;;;;;;6.10;5.43;;;13.90;68.90;;;;;;5030807;28;20026;-87
2021/10/09 07:32:33;;;;;;;4.75;4.55;;;14.30;68.30;;;;;;5030013;28;20018;-86
2021/10/09 07:34:59;;;;;;;5.60;5.30;;;14.50;68.60;;;;;;5057726;28;20026;-85
2021/10/09 07:37:25;;;;;;;5.97;5.68;;;14.70;68.40;;;;;;5063225;28;20033;-84
2021/10/09 07:39:51;;;;;;;5.82;5.53;;;14.80;67.50;;;;;;5063357;28;20025;-84
2021/10/09 07:42:17;;;;;;;5.53;5.10;;;14.90;67.50;;;;;;5030641;28;20048;-85
2021/10/09 07:44:44;;;;;;;6.65;6.00;;;15.10;67.40;;;;;;5045138;28;20049;-85
2021/10/09 07:47:13;;;;;;;6.25;5.93;;;15.30;67.10;;;;;;5029317;28;20044;-85
2021/10/09 07:49:40;;;;;;;6.20;5.82;;;15.50;66.80;;;;;;5062344;28;20117;-86
2021/10/09 07:52:07;;;;;;;5.55;5.13;;;15.60;66.70;;;;;;5047822;28;20587;-86
2021/10/09 07:54:33;;;;;;;5.80;5.50;;;15.70;66.70;;;;;;5031532;28;20049;-87
2021/10/09 07:56:59;;;;;;;5.32;5.13;;;15.70;66.70;;;;;;5063422;28;20037;-87
2021/10/09 07:59:25;;;;;;;6.03;5.53;;;15.70;66.90;;;;;;5062528;28;20037;-87
2021/10/09 08:01:51;;;;;;;5.50;5.20;;;15.70;67.00;;;;;;5063961;28;20059;-87
2021/10/09 08:04:18;;;;;;;5.75;5.38;;;15.90;67.00;;;;;;5038076;28;20052;-88
2021/10/09 08:06:44;;;;;;;6.80;6.40;;;16.20;66.60;;;;;;5021042;28;20048;-90
2021/10/09 08:09:11;;;;;;;6.45;5.95;;;16.40;66.20;;;;;;5030076;28;20030;-89
2021/10/09 08:11:37;;;;;;;6.45;5.97;;;16.50;66.00;;;;;;5030368;28;20042;-91
2021/10/09 08:14:04;;;;;;;5.32;5.03;;;16.70;65.90;;;;;;5033607;28;20034;-90
2021/10/09 08:16:30;;;;;;;6.30;5.90;;;16.70;65.90;;;;;;5026685;28;20041;-89
2021/10/09 08:18:59;;;;;;;6.28;5.88;;;16.80;65.80;;;;;;5031759;28;20037;-83
2021/10/09 08:21:27;;;;;;;11.13;6.57;;;16.80;65.80;;;;;;5033569;28;20068;-85
2021/10/09 08:27:00;;;;;;;8.98;8.10;;;16.80;66.10;;;;;;5020397;28;20368;-85
2021/10/09 08:40:24;;;;;;;6.53;6.07;;;16.60;67.50;;;;;;5044200;28;20040;-88
2021/10/09 08:42:50;;;;;;;7.05;6.65;;;16.80;67.20;;;;;;5000474;28;20053;-75
2021/10/09 08:45:16;;;;;;;7.20;6.60;;;17.00;66.70;;;;;;5023652;28;20045;-88
2021/10/09 08:47:44;;;;;;;5.28;5.05;;;17.20;66.30;;;;;;5010866;28;20409;-85
2021/10/09 08:50:11;;;;;;;7.80;7.40;;;17.40;65.90;;;;;;5031962;28;20033;-86
2021/10/09 08:52:37;;;;;;;6.15;5.70;;;17.50;65.80;;;;;;5049191;28;20048;-88
2021/10/09 08:55:23;;;;;;;6.38;5.88;;;17.50;65.60;;;;;;5016304;28;20423;-88
2021/10/09 08:57:49;;;;;;;5.30;5.10;;;17.50;65.70;;;;;;5029171;28;20038;-88
2021/10/09 09:00:21;;;;;;;8.70;7.35;;;17.60;65.80;;;;;;5032537;28;20042;-86
2021/10/09 09:06:04;;;;;;;4.97;4.78;;;17.50;66.10;;;;;;5031119;28;20041;-87
2021/10/09 09:08:53;;;;;;;6.15;5.75;;;17.50;66.30;;;;;;5016869;28;20487;-88
2021/10/09 09:25:42;;;;;;;6.07;5.78;;;17.80;66.10;;;;;;5049359;28;20033;-90
2021/10/09 09:39:05;;;;;;;6.72;6.43;;;17.90;65.90;;;;;;5018325;28;20036;-86
2021/10/09 09:41:41;;;;;;;6.90;6.60;;;17.90;65.90;;;;;;5031091;28;20059;-85
2021/10/09 09:44:10;;;;;;;7.28;6.88;;;17.90;65.80;;;;;;5046559;28;20066;-84
2021/10/09 09:46:36;;;;;;;6.65;6.35;;;18.00;65.70;;;;;;5058386;28;20504;-87
2021/10/09 09:49:02;;;;;;;11.95;11.35;;;18.00;65.50;;;;;;5031406;28;20040;-80
2021/10/09 09:51:28;;;;;;;7.47;6.97;;;18.10;65.50;;;;;;5011187;28;20048;-79
2021/10/09 09:53:54;;;;;;;7.72;7.25;;;18.20;65.40;;;;;;5064385;28;20468;-79
2021/10/09 09:56:20;;;;;;;6.60;6.30;;;18.30;65.30;;;;;;5026324;28;20032;-81
2021/10/09 09:58:56;;;;;;;6.70;6.40;;;18.30;65.30;;;;;;5031523;28;20036;-81
2021/10/09 10:01:22;;;;;;;6.70;6.30;;;18.40;65.30;;;;;;5053891;28;20037;-81
2021/10/09 10:03:48;;;;;;;6.78;6.38;;;18.50;65.00;;;;;;5044503;28;20472;-80
2021/10/09 10:06:15;;;;;;;9.40;8.98;;;18.50;64.60;;;;;;5029494;28;20025;-81
2021/10/09 10:08:41;;;;;;;7.00;6.60;;;18.60;64.50;;;;;;5032126;28;20041;-82
2021/10/09 10:11:09;;;;;;;6.03;5.72;;;18.60;64.30;;;;;;5031606;28;20021;-83
2021/10/09 10:13:35;;;;;;;7.35;6.78;;;18.70;64.30;;;;;;5044780;28;20026;-83
2021/10/09 10:16:06;;;;;;;13.52;12.90;;;18.70;64.10;;;;;;5025832;28;20492;-82
2021/10/09 10:18:44;;;;;;;7.28;6.95;;;18.80;64.10;;;;;;5011858;28;20037;-82
2021/10/09 10:21:33;;;;;;;6.40;6.10;;;18.80;63.70;;;;;;5030672;28;20036;-81
2021/10/09 10:23:59;;;;;;;6.95;6.65;;;18.80;63.60;;;;;;5028463;28;20050;-81
2021/10/09 10:26:33;;;;;;;8.98;8.48;;;18.90;63.60;;;;;;5058201;28;20600;-82
2021/10/09 10:29:01;;;;;;;7.80;7.30;;;18.90;63.40;;;;;;5044545;28;20384;-82
2021/10/09 10:31:28;;;;;;;7.00;6.60;;;19.00;63.30;;;;;;5029273;28;20550;-82
2021/10/09 10:34:24;;;;;;;7.00;6.60;;;19.00;63.10;;;;;;5029628;28;20029;-83
2021/10/09 10:36:50;;;;;;;6.88;6.53;;;19.10;63.10;;;;;;5028126;28;20476;-82
2021/10/09 10:39:20;;;;;;;8.85;8.45;;;19.10;62.90;;;;;;5030530;28;20037;-82
2021/10/09 10:42:03;;;;;;;8.17;7.77;;;19.20;62.80;;;;;;5061084;28;20045;-81
2021/10/09 10:45:01;;;;;;;7.72;7.32;;;19.20;62.50;;;;;;5028884;28;20373;-79
2021/10/09 10:47:50;;;;;;;6.88;6.57;;;19.20;62.30;;;;;;5024716;28;20538;-89
2021/10/09 10:53:23;;;;;;;7.85;7.25;;;19.30;62.20;;;;;;5023744;28;20036;-85
2021/10/09 10:56:08;;;;;;;7.80;7.20;;;19.40;61.80;;;;;;5030396;28;20411;-79
2021/10/09 10:58:34;;;;;;;7.45;7.05;;;19.50;61.80;;;;;;5057855;28;20101;-77
2021/10/09 11:01:16;;;;;;;7.45;7.15;;;19.50;61.60;;;;;;5018984;28;20377;-78
2021/10/09 11:03:47;;;;;;;9.35;8.95;;;19.50;61.50;;;;;;5041859;28;20042;-78
2021/10/09 11:06:17;;;;;;;7.95;7.55;;;19.60;61.10;;;;;;5033276;28;20032;-76
2021/10/09 11:08:47;;;;;;;7.85;7.45;;;19.60;61.00;;;;;;5032083;28;20052;-76
2021/10/09 11:11:14;;;;;;;8.02;7.53;;;19.60;60.90;;;;;;5042592;28;20052;-77
2021/10/09 11:13:40;;;;;;;8.90;8.50;;;19.60;60.60;;;;;;5043419;28;20025;-76
2021/10/09 11:16:06;;;;;;;9.45;8.85;;;19.70;60.40;;;;;;4998781;28;20033;-76
2021/10/09 11:18:52;;;;;;;10.55;10.00;;;19.60;60.20;;;;;;5014086;28;20032;-77
2021/10/09 11:21:18;;;;;;;8.05;7.65;;;19.70;60.30;;;;;;5044545;28;20024;-76
2021/10/09 11:23:54;;;;;;;8.93;8.45;;;19.70;60.20;;;;;;5034791;28;20057;-77
2021/10/09 11:26:21;;;;;;;8.18;7.78;;;19.70;60.00;;;;;;5056500;28;20017;-80
2021/10/09 11:29:01;;;;;;;8.18;7.78;;;19.80;59.90;;;;;;5045816;28;20407;-80
2021/10/09 11:31:27;;;;;;;8.30;7.90;;;19.80;59.80;;;;;;5061993;28;20049;-80
2021/10/09 11:33:59;;;;;;;9.18;8.68;;;19.80;59.70;;;;;;5062621;28;20036;-78
2021/10/09 11:36:25;;;;;;;8.35;7.95;;;19.90;59.40;;;;;;5030216;28;20468;-78
2021/10/09 11:39:05;;;;;;;9.10;8.70;;;19.90;59.30;;;;;;5025840;28;20034;-78
2021/10/09 11:41:31;;;;;;;9.45;8.95;;;19.90;59.10;;;;;;5024729;28;20029;-78
2021/10/09 11:47:07;;;;;;;9.32;8.82;;;20.00;59.00;;;;;;5033847;28;20030;-78
2021/10/09 11:55:12;;;;;;;9.95;9.45;;;20.10;58.60;;;;;;5064586;28;20036;-78
2021/10/09 11:57:38;;;;;;;9.10;8.70;;;20.20;58.50;;;;;;5026649;28;20036;-78
2021/10/09 12:00:27;;;;;;;10.32;9.63;;;20.20;58.30;;;;;;5016525;28;20480;-79
2021/10/09 12:03:00;;;;;;;9.82;9.35;;;20.30;58.20;;;;;;5033390;28;20543;-78
2021/10/09 12:05:33;;;;;;;10.30;9.80;;;20.30;58.10;;;;;;5064279;28;20025;-78
2021/10/09 12:08:18;;;;;;;11.43;10.82;;;20.30;57.90;;;;;;5064143;28;20488;-78
2021/10/09 12:11:11;;;;;;;10.20;9.45;;;20.30;57.90;;;;;;5061511;28;20264;-78
2021/10/09 12:13:48;;;;;;;9.57;9.07;;;20.30;57.70;;;;;;5033271;28;20488;-78
2021/10/09 12:16:15;;;;;;;11.30;10.65;;;20.40;57.80;;;;;;5032134;28;20041;-79
2021/10/09 12:19:04;;;;;;;10.10;9.60;;;20.40;57.70;;;;;;5045646;28;20036;-78
2021/10/09 12:21:35;;;;;;;11.18;10.48;;;20.50;57.60;;;;;;5025607;28;20038;-78
2021/10/09 12:24:13;;;;;;;10.73;10.23;;;20.50;57.40;;;;;;5064485;28;20463;-78
2021/10/09 12:26:39;;;;;;;46.60;44.22;;;20.50;57.20;;;;;;5048474;28;20431;-78
2021/10/09 12:29:10;;;;;;;12.68;12.07;;;20.60;56.80;;;;;;5028907;28;20041;-78
2021/10/09 12:31:46;;;;;;;10.52;10.02;;;20.60;56.50;;;;;;5062720;28;20041;-78
2021/10/09 12:34:32;;;;;;;16.83;16.02;;;20.50;56.30;;;;;;5009351;28;20034;-77
2021/10/09 12:37:15;;;;;;;12.60;12.00;;;20.60;56.20;;;;;;5047404;28;20029;-79
2021/10/09 12:39:42;;;;;;;11.35;10.77;;;20.50;55.80;;;;;;5028380;28;20061;-78
2021/10/09 12:42:09;;;;;;;11.85;11.25;;;20.50;56.10;;;;;;4989413;28;20045;-79
2021/10/09 12:44:36;;;;;;;46.80;44.30;;;20.50;55.60;;;;;;5027110;28;20468;-79
2021/10/09 12:47:02;;;;;;;12.50;11.90;;;20.50;55.40;;;;;;5031499;28;20045;-79
2021/10/09 12:49:28;;;;;;;11.32;10.82;;;20.50;55.00;;;;;;5064486;28;20057;-79
2021/10/09 12:51:54;;;;;;;12.68;12.07;;;20.50;55.00;;;;;;5047610;28;20025;-79
2021/10/09 12:54:20;;;;;;;11.57;10.98;;;20.60;55.10;;;;;;5032540;28;20484;-79
2021/10/09 12:56:49;;;;;;;22.15;21.13;;;20.60;54.80;;;;;;5047123;28;20041;-79
2021/10/09 12:59:17;;;;;;;12.50;11.90;;;20.60;54.70;;;;;;5031677;28;20028;-79
2021/10/09 13:01:43;;;;;;;13.70;13.05;;;20.70;54.80;;;;;;5061102;28;20048;-79
2021/10/09 13:04:09;;;;;;;13.30;12.70;;;20.70;54.60;;;;;;5046083;28;20056;-79
2021/10/09 13:06:35;;;;;;;13.07;12.48;;;20.80;54.40;;;;;;5049365;28;20021;-79
2021/10/09 13:09:01;;;;;;;12.32;11.73;;;20.80;54.30;;;;;;5064470;28;20044;-78
2021/10/09 13:11:30;;;;;;;12.52;11.93;;;20.80;54.40;;;;;;5027195;28;20033;-78
2021/10/09 13:13:57;;;;;;;13.43;12.82;;;20.80;54.40;;;;;;5030218;28;20041;-78
2021/10/09 13:16:23;;;;;;;12.45;11.75;;;20.90;54.20;;;;;;5030172;28;20041;-79
2021/10/09 13:18:49;;;;;;;12.95;12.15;;;20.90;54.10;;;;;;5062241;28;20029;-79
2021/10/09 13:21:15;;;;;;;12.50;11.90;;;20.90;54.10;;;;;;5031709;28;20030;-78
2021/10/09 13:23:41;;;;;;;14.95;14.15;;;20.90;54.00;;;;;;5026701;28;20064;-78
2021/10/09 13:26:07;;;;;;;13.27;12.68;;;21.00;53.80;;;;;;5057563;28;20025;-78
2021/10/09 13:28:36;;;;;;;14.90;14.20;;;20.90;53.60;;;;;;5063502;28;20056;-78
2021/10/09 13:31:03;;;;;;;12.25;11.65;;;20.90;53.60;;;;;;5044438;28;20033;-78
2021/10/09 13:33:29;;;;;;;13.15;12.55;;;20.90;53.70;;;;;;5031664;28;20041;-78
2021/10/09 13:35:56;;;;;;;13.45;12.85;;;21.00;53.80;;;;;;5057584;28;20420;-80
2021/10/09 13:38:22;;;;;;;13.50;12.80;;;21.00;53.60;;;;;;5045795;28;20037;-77
2021/10/09 13:40:48;;;;;;;13.02;12.32;;;21.00;53.60;;;;;;5047464;28;20033;-77
2021/10/09 13:43:14;;;;;;;13.98;13.30;;;21.00;53.60;;;;;;5064361;28;20033;-77
2021/10/09 13:45:44;;;;;;;13.45;12.75;;;21.00;53.60;;;;;;5040602;28;20041;-78
2021/10/09 13:48:10;;;;;;;13.23;12.63;;;21.00;53.60;;;;;;5018288;28;20073;-78
2021/10/09 13:50:42;;;;;;;13.10;12.50;;;21.00;53.40;;;;;;5027678;28;20022;-77
2021/10/09 13:53:10;;;;;;;15.45;14.75;;;21.00;53.40;;;;;;5046160;28;20045;-77
2021/10/09 13:55:36;;;;;;;12.95;12.35;;;21.00;53.20;;;;;;5047258;28;20033;-77
2021/10/09 13:58:03;;;;;;;14.10;13.40;;;21.00;53.30;;;;;;5064466;28;20374;-78
2021/10/09 14:00:30;;;;;;;13.68;12.98;;;21.00;53.40;;;;;;5017527;28;20041;-78
2021/10/09 14:02:56;;;;;;;13.70;12.90;;;21.00;53.50;;;;;;5014867;28;20037;-77
2021/10/09 14:05:22;;;;;;;18.33;17.42;;;21.00;53.40;;;;;;5034975;28;20033;-77
2021/10/09 14:07:48;;;;;;;13.93;13.20;;;21.00;53.10;;;;;;5046025;28;20031;-77
2021/10/09 14:10:17;;;;;;;29.55;28.13;;;20.90;53.20;;;;;;5052891;28;20487;-77
2021/10/09 14:12:43;;;;;;;13.80;13.18;;;20.90;53.00;;;;;;5034084;28;20042;-77
2021/10/09 14:15:10;;;;;;;13.60;12.98;;;20.80;52.90;;;;;;5031419;28;20395;-78
2021/10/09 14:17:36;;;;;;;12.90;12.30;;;20.80;53.00;;;;;;5034102;28;20033;-77
2021/10/09 14:20:03;;;;;;;13.95;13.25;;;20.80;53.10;;;;;;5046477;28;20029;-78
2021/10/09 14:22:30;;;;;;;14.35;13.65;;;20.80;53.10;;;;;;5063801;28;20037;-78
2021/10/09 14:24:56;;;;;;;13.98;13.32;;;20.80;52.90;;;;;;5063832;28;20036;-78
2021/10/09 14:27:23;;;;;;;13.30;12.48;;;20.80;52.70;;;;;;5035335;28;20033;-76
2021/10/09 14:29:49;;;;;;;12.27;11.68;;;20.80;52.60;;;;;;5061913;28;20041;-76
2021/10/09 14:32:15;;;;;;;12.93;12.32;;;20.70;52.70;;;;;;5062579;28;20046;-78
2021/10/09 14:34:42;;;;;;;12.80;12.10;;;20.70;52.90;;;;;;5030201;28;20040;-78
2021/10/09 14:37:08;;;;;;;12.88;12.27;;;20.70;52.90;;;;;;5062917;28;20034;-78
2021/10/09 14:39:34;;;;;;;12.35;11.77;;;20.70;53.60;;;;;;5064535;28;20029;-77
2021/10/09 14:42:00;;;;;;;12.90;12.30;;;20.70;53.00;;;;;;5062291;28;20037;-77
2021/10/09 14:44:26;;;;;;;13.55;12.85;;;20.70;53.00;;;;;;5031467;28;20042;-78
2021/10/09 14:49:28;;;;;;;13.15;12.38;;;20.70;53.10;;;;;;5048291;28;20036;-78
2021/10/09 15:16:36;;;;;;;13.52;12.93;;;20.70;53.30;;;;;;4971229;28;20507;-80
2021/10/09 15:19:02;;;;;;;11.70;11.18;;;20.60;53.20;;;;;;4926926;28;20045;-78
2021/10/09 15:21:28;;;;;;;12.70;12.00;;;20.60;53.20;;;;;;4969832;28;20640;-79
2021/10/09 15:23:54;;;;;;;14.18;13.48;;;20.60;53.20;;;;;;4952460;28;20621;-90
2021/10/09 15:26:20;;;;;;;13.52;12.88;;;20.50;53.10;;;;;;4969752;28;20039;-90
2021/10/09 15:28:46;;;;;;;14.98;13.93;;;20.50;53.10;;;;;;4969793;28;20051;-88
2021/10/09 15:31:13;;;;;;;12.57;11.93;;;20.50;53.20;;;;;;4953106;28;20042;-87